sensor_id;sensor_type;location;lat;lon;timestamp;temperature;humidity
72883;DHT22;61017;37.812;-122.286;2022-11-12T00:01:04;17.80;76.90
72883;DHT22;61017;37.812;-122.286;2022-11-12T00:02:54;17.90;76.80
72883;DHT22;61017;37.812;-122.286;2022-11-12T00:04:44;17.80;76.60
72883;DHT22;61017;37.812;-122.286;2022-11-12T00:06:34;17.90;76.50
72883;DHT22;61017;37.812;-122.286;2022-11-12T00:08:24;17.90;76.70
72883;DHT22;61017;37.812;-122.286;2022-11-12T00:10:15;17.80;76.30
72883;DHT22;61017;37.812;-122.286;2022-11-12T00:12:05;17.90;76.50
72883;DHT22;61017;37.812;-122.286;2022-11-12T00:13:55;17.90;76.10
72883;DHT22;61017;37.812;-122.286;2022-11-12T00:15:46;17.90;75.90
72883;DHT22;61017;37.812;-122.286;2022-11-12T00:17:36;17.90;76.00
72883;DHT22;61017;37.812;-122.286;2022-11-12T00:19:26;17.90;76.30
72883;DHT22;61017;37.812;-122.286;2022-11-12T00:21:19;17.80;75.90
72883;DHT22;61017;37.812;-122.286;2022-11-12T00:23:09;17.90;76.30
72883;DHT22;61017;37.812;-122.286;2022-11-12T00:24:59;17.90;76.30
72883;DHT22;61017;37.812;-122.286;2022-11-12T00:26:49;17.90;76.20
72883;DHT22;61017;37.812;-122.286;2022-11-12T00:28:39;17.90;76.00
72883;DHT22;61017;37.812;-122.286;2022-11-12T00:30:29;17.90;76.10
72883;DHT22;61017;37.812;-122.286;2022-11-12T00:32:19;17.90;76.10
72883;DHT22;61017;37.812;-122.286;2022-11-12T00:34:09;17.90;76.00
72883;DHT22;61017;37.812;-122.286;2022-11-12T00:35:59;17.90;76.20
72883;DHT22;61017;37.812;-122.286;2022-11-12T00:37:53;17.90;76.20
72883;DHT22;61017;37.812;-122.286;2022-11-12T00:39:44;17.90;76.40
72883;DHT22;61017;37.812;-122.286;2022-11-12T00:41:34;17.90;76.40
72883;DHT22;61017;37.812;-122.286;2022-11-12T00:43:24;17.90;76.50
72883;DHT22;61017;37.812;-122.286;2022-11-12T00:45:14;17.90;76.50
72883;DHT22;61017;37.812;-122.286;2022-11-12T00:47:04;17.90;76.50
72883;DHT22;61017;37.812;-122.286;2022-11-12T00:48:54;17.90;76.50
72883;DHT22;61017;37.812;-122.286;2022-11-12T00:50:44;17.90;76.70
72883;DHT22;61017;37.812;-122.286;2022-11-12T00:52:34;17.90;76.70
72883;DHT22;61017;37.812;-122.286;2022-11-12T00:54:24;17.90;76.50
72883;DHT22;61017;37.812;-122.286;2022-11-12T00:56:14;17.90;76.50
72883;DHT22;61017;37.812;-122.286;2022-11-12T00:58:04;18.00;76.20
72883;DHT22;61017;37.812;-122.286;2022-11-12T00:59:54;18.00;76.30
72883;DHT22;61017;37.812;-122.286;2022-11-12T01:01:44;18.00;76.10
72883;DHT22;61017;37.812;-122.286;2022-11-12T01:03:35;18.00;75.90
72883;DHT22;61017;37.812;-122.286;2022-11-12T01:05:25;18.00;75.80
72883;DHT22;61017;37.812;-122.286;2022-11-12T01:07:16;18.00;76.00
72883;DHT22;61017;37.812;-122.286;2022-11-12T01:09:07;18.00;75.70
72883;DHT22;61017;37.812;-122.286;2022-11-12T01:11:11;18.00;76.10
72883;DHT22;61017;37.812;-122.286;2022-11-12T01:13:01;18.10;76.40
72883;DHT22;61017;37.812;-122.286;2022-11-12T01:14:51;18.10;76.10
72883;DHT22;61017;37.812;-122.286;2022-11-12T01:16:41;18.10;76.30
72883;DHT22;61017;37.812;-122.286;2022-11-12T01:18:31;18.10;76.40
72883;DHT22;61017;37.812;-122.286;2022-11-12T01:20:21;18.10;76.40
72883;DHT22;61017;37.812;-122.286;2022-11-12T01:22:11;18.10;76.40
72883;DHT22;61017;37.812;-122.286;2022-11-12T01:24:01;18.10;76.40
72883;DHT22;61017;37.812;-122.286;2022-11-12T01:25:51;18.10;76.30
72883;DHT22;61017;37.812;-122.286;2022-11-12T01:27:41;18.10;76.50
72883;DHT22;61017;37.812;-122.286;2022-11-12T01:29:31;18.10;76.50
72883;DHT22;61017;37.812;-122.286;2022-11-12T01:31:29;18.10;76.50
72883;DHT22;61017;37.812;-122.286;2022-11-12T01:33:20;18.10;76.40
72883;DHT22;61017;37.812;-122.286;2022-11-12T01:35:10;18.10;76.50
72883;DHT22;61017;37.812;-122.286;2022-11-12T01:37:00;18.10;76.30
72883;DHT22;61017;37.812;-122.286;2022-11-12T01:38:51;18.10;76.20
72883;DHT22;61017;37.812;-122.286;2022-11-12T01:40:41;18.10;76.20
72883;DHT22;61017;37.812;-122.286;2022-11-12T01:42:32;18.10;76.10
72883;DHT22;61017;37.812;-122.286;2022-11-12T01:44:29;18.10;76.40
72883;DHT22;61017;37.812;-122.286;2022-11-12T01:46:27;18.10;76.50
72883;DHT22;61017;37.812;-122.286;2022-11-12T01:48:39;18.10;76.40
72883;DHT22;61017;37.812;-122.286;2022-11-12T01:50:32;18.10;76.40
72883;DHT22;61017;37.812;-122.286;2022-11-12T01:52:35;18.20;76.60
72883;DHT22;61017;37.812;-122.286;2022-11-12T01:54:26;18.20;76.60
72883;DHT22;61017;37.812;-122.286;2022-11-12T01:56:17;18.20;76.50
72883;DHT22;61017;37.812;-122.286;2022-11-12T01:58:13;18.20;76.60
72883;DHT22;61017;37.812;-122.286;2022-11-12T02:00:10;18.20;76.60
72883;DHT22;61017;37.812;-122.286;2022-11-12T02:02:02;18.20;76.70
72883;DHT22;61017;37.812;-122.286;2022-11-12T02:03:52;18.30;76.70
72883;DHT22;61017;37.812;-122.286;2022-11-12T02:05:42;18.20;76.50
72883;DHT22;61017;37.812;-122.286;2022-11-12T02:07:33;18.30;76.80
72883;DHT22;61017;37.812;-122.286;2022-11-12T02:09:24;18.20;76.60
72883;DHT22;61017;37.812;-122.286;2022-11-12T02:11:19;18.30;76.70
72883;DHT22;61017;37.812;-122.286;2022-11-12T02:13:09;18.20;76.50
72883;DHT22;61017;37.812;-122.286;2022-11-12T02:15:00;18.20;76.60
72883;DHT22;61017;37.812;-122.286;2022-11-12T02:16:51;18.20;76.60
72883;DHT22;61017;37.812;-122.286;2022-11-12T02:18:41;18.30;76.80
72883;DHT22;61017;37.812;-122.286;2022-11-12T02:20:35;18.20;76.70
72883;DHT22;61017;37.812;-122.286;2022-11-12T02:22:25;18.20;76.70
72883;DHT22;61017;37.812;-122.286;2022-11-12T02:26:05;18.20;76.60
72883;DHT22;61017;37.812;-122.286;2022-11-12T02:27:56;18.20;76.70
72883;DHT22;61017;37.812;-122.286;2022-11-12T02:29:47;18.20;76.60
72883;DHT22;61017;37.812;-122.286;2022-11-12T02:31:37;18.20;76.60
72883;DHT22;61017;37.812;-122.286;2022-11-12T02:33:27;18.20;76.50
72883;DHT22;61017;37.812;-122.286;2022-11-12T02:35:17;18.20;76.90
72883;DHT22;61017;37.812;-122.286;2022-11-12T02:37:08;18.30;78.60
72883;DHT22;61017;37.812;-122.286;2022-11-12T02:38:58;18.30;78.90
72883;DHT22;61017;37.812;-122.286;2022-11-12T02:40:48;18.30;79.40
72883;DHT22;61017;37.812;-122.286;2022-11-12T02:42:44;18.30;79.40
72883;DHT22;61017;37.812;-122.286;2022-11-12T02:44:35;18.20;79.50
72883;DHT22;61017;37.812;-122.286;2022-11-12T02:46:28;18.30;79.30
72883;DHT22;61017;37.812;-122.286;2022-11-12T02:48:17;18.20;79.40
72883;DHT22;61017;37.812;-122.286;2022-11-12T02:50:08;18.30;79.40
72883;DHT22;61017;37.812;-122.286;2022-11-12T02:51:58;18.30;79.30
72883;DHT22;61017;37.812;-122.286;2022-11-12T02:53:57;18.20;78.90
72883;DHT22;61017;37.812;-122.286;2022-11-12T02:55:47;18.30;79.60
72883;DHT22;61017;37.812;-122.286;2022-11-12T02:57:38;18.20;78.50
72883;DHT22;61017;37.812;-122.286;2022-11-12T02:59:28;18.30;78.60
72883;DHT22;61017;37.812;-122.286;2022-11-12T03:01:18;18.30;78.50
72883;DHT22;61017;37.812;-122.286;2022-11-12T03:03:10;18.30;78.40
72883;DHT22;61017;37.812;-122.286;2022-11-12T03:05:00;18.30;78.20
72883;DHT22;61017;37.812;-122.286;2022-11-12T03:06:50;18.30;78.20
72883;DHT22;61017;37.812;-122.286;2022-11-12T03:08:40;18.30;78.10
72883;DHT22;61017;37.812;-122.286;2022-11-12T03:10:31;18.30;78.10
72883;DHT22;61017;37.812;-122.286;2022-11-12T03:12:21;18.30;78.00
72883;DHT22;61017;37.812;-122.286;2022-11-12T03:14:12;18.30;78.00
72883;DHT22;61017;37.812;-122.286;2022-11-12T03:16:05;18.30;77.90
72883;DHT22;61017;37.812;-122.286;2022-11-12T03:17:57;18.30;77.80
72883;DHT22;61017;37.812;-122.286;2022-11-12T03:19:47;18.30;77.80
72883;DHT22;61017;37.812;-122.286;2022-11-12T03:21:37;18.30;77.70
72883;DHT22;61017;37.812;-122.286;2022-11-12T03:23:27;18.30;77.60
72883;DHT22;61017;37.812;-122.286;2022-11-12T03:25:18;18.30;77.60
72883;DHT22;61017;37.812;-122.286;2022-11-12T03:27:11;18.30;77.50
72883;DHT22;61017;37.812;-122.286;2022-11-12T03:29:01;18.30;77.50
72883;DHT22;61017;37.812;-122.286;2022-11-12T03:30:57;18.30;78.00
72883;DHT22;61017;37.812;-122.286;2022-11-12T03:32:47;18.30;77.10
72883;DHT22;61017;37.812;-122.286;2022-11-12T03:34:37;18.30;77.20
72883;DHT22;61017;37.812;-122.286;2022-11-12T03:36:30;18.30;77.10
72883;DHT22;61017;37.812;-122.286;2022-11-12T03:38:20;18.20;77.10
72883;DHT22;61017;37.812;-122.286;2022-11-12T03:40:10;18.30;77.20
72883;DHT22;61017;37.812;-122.286;2022-11-12T03:42:03;18.30;77.50
72883;DHT22;61017;37.812;-122.286;2022-11-12T03:43:53;18.30;77.50
72883;DHT22;61017;37.812;-122.286;2022-11-12T03:45:43;18.30;77.40
72883;DHT22;61017;37.812;-122.286;2022-11-12T03:47:33;18.30;77.30
72883;DHT22;61017;37.812;-122.286;2022-11-12T03:49:23;18.30;77.50
72883;DHT22;61017;37.812;-122.286;2022-11-12T03:51:15;18.30;77.50
72883;DHT22;61017;37.812;-122.286;2022-11-12T03:53:06;18.30;77.30
72883;DHT22;61017;37.812;-122.286;2022-11-12T03:54:57;18.30;77.20
72883;DHT22;61017;37.812;-122.286;2022-11-12T03:56:47;18.30;77.10
72883;DHT22;61017;37.812;-122.286;2022-11-12T03:58:37;18.30;77.10
72883;DHT22;61017;37.812;-122.286;2022-11-12T04:00:27;18.30;77.00
72883;DHT22;61017;37.812;-122.286;2022-11-12T04:02:19;18.30;77.00
72883;DHT22;61017;37.812;-122.286;2022-11-12T04:04:09;18.30;76.90
72883;DHT22;61017;37.812;-122.286;2022-11-12T04:05:59;18.30;76.90
72883;DHT22;61017;37.812;-122.286;2022-11-12T04:07:59;18.40;77.10
72883;DHT22;61017;37.812;-122.286;2022-11-12T04:09:49;18.40;76.90
72883;DHT22;61017;37.812;-122.286;2022-11-12T04:11:39;18.40;76.80
72883;DHT22;61017;37.812;-122.286;2022-11-12T04:13:29;18.30;76.50
72883;DHT22;61017;37.812;-122.286;2022-11-12T04:15:22;18.30;76.30
72883;DHT22;61017;37.812;-122.286;2022-11-12T04:17:15;18.30;76.00
72883;DHT22;61017;37.812;-122.286;2022-11-12T04:19:07;18.30;75.90
72883;DHT22;61017;37.812;-122.286;2022-11-12T04:20:57;18.30;75.90
72883;DHT22;61017;37.812;-122.286;2022-11-12T04:22:50;18.30;75.80
72883;DHT22;61017;37.812;-122.286;2022-11-12T04:24:41;18.40;76.30
72883;DHT22;61017;37.812;-122.286;2022-11-12T04:26:34;18.30;76.40
72883;DHT22;61017;37.812;-122.286;2022-11-12T04:28:25;18.30;76.10
72883;DHT22;61017;37.812;-122.286;2022-11-12T04:30:15;18.30;76.00
72883;DHT22;61017;37.812;-122.286;2022-11-12T04:32:14;18.30;75.90
72883;DHT22;61017;37.812;-122.286;2022-11-12T04:34:05;18.30;75.70
72883;DHT22;61017;37.812;-122.286;2022-11-12T04:35:56;18.30;75.60
72883;DHT22;61017;37.812;-122.286;2022-11-12T04:37:47;18.40;75.60
72883;DHT22;61017;37.812;-122.286;2022-11-12T04:39:40;18.40;75.50
72883;DHT22;61017;37.812;-122.286;2022-11-12T04:41:30;18.40;75.50
72883;DHT22;61017;37.812;-122.286;2022-11-12T04:43:23;18.30;75.40
72883;DHT22;61017;37.812;-122.286;2022-11-12T04:45:13;18.30;75.30
72883;DHT22;61017;37.812;-122.286;2022-11-12T04:47:09;18.30;75.70
72883;DHT22;61017;37.812;-122.286;2022-11-12T04:49:03;18.30;75.20
72883;DHT22;61017;37.812;-122.286;2022-11-12T04:51:00;18.30;75.20
72883;DHT22;61017;37.812;-122.286;2022-11-12T04:53:09;18.30;75.10
72883;DHT22;61017;37.812;-122.286;2022-11-12T04:54:59;18.30;74.90
72883;DHT22;61017;37.812;-122.286;2022-11-12T04:56:53;18.20;74.80
72883;DHT22;61017;37.812;-122.286;2022-11-12T04:58:43;18.30;74.80
72883;DHT22;61017;37.812;-122.286;2022-11-12T05:00:36;18.30;74.60
72883;DHT22;61017;37.812;-122.286;2022-11-12T05:02:27;18.30;74.60
72883;DHT22;61017;37.812;-122.286;2022-11-12T05:04:20;18.30;74.40
72883;DHT22;61017;37.812;-122.286;2022-11-12T05:06:13;18.30;74.30
72883;DHT22;61017;37.812;-122.286;2022-11-12T05:08:04;18.20;74.20
72883;DHT22;61017;37.812;-122.286;2022-11-12T05:09:53;18.20;74.10
72883;DHT22;61017;37.812;-122.286;2022-11-12T05:11:44;18.20;73.90
72883;DHT22;61017;37.812;-122.286;2022-11-12T05:13:36;18.20;73.90
72883;DHT22;61017;37.812;-122.286;2022-11-12T05:15:27;18.20;74.10
72883;DHT22;61017;37.812;-122.286;2022-11-12T05:17:20;18.20;73.70
72883;DHT22;61017;37.812;-122.286;2022-11-12T05:19:13;18.20;73.60
72883;DHT22;61017;37.812;-122.286;2022-11-12T05:21:05;18.20;73.50
72883;DHT22;61017;37.812;-122.286;2022-11-12T05:22:58;18.20;73.60
72883;DHT22;61017;37.812;-122.286;2022-11-12T05:24:51;18.20;73.70
72883;DHT22;61017;37.812;-122.286;2022-11-12T05:26:53;18.20;73.60
72883;DHT22;61017;37.812;-122.286;2022-11-12T05:28:46;18.20;73.50
72883;DHT22;61017;37.812;-122.286;2022-11-12T05:30:47;18.20;73.90
72883;DHT22;61017;37.812;-122.286;2022-11-12T05:32:36;18.20;74.30
72883;DHT22;61017;37.812;-122.286;2022-11-12T05:34:26;18.20;74.70
72883;DHT22;61017;37.812;-122.286;2022-11-12T05:36:16;18.20;74.80
72883;DHT22;61017;37.812;-122.286;2022-11-12T05:38:06;18.20;74.40
72883;DHT22;61017;37.812;-122.286;2022-11-12T05:39:57;18.20;74.90
72883;DHT22;61017;37.812;-122.286;2022-11-12T05:41:47;18.20;75.00
72883;DHT22;61017;37.812;-122.286;2022-11-12T05:43:37;18.20;75.20
72883;DHT22;61017;37.812;-122.286;2022-11-12T05:45:27;18.20;75.10
72883;DHT22;61017;37.812;-122.286;2022-11-12T05:47:17;18.20;75.40
72883;DHT22;61017;37.812;-122.286;2022-11-12T05:49:07;18.20;75.80
72883;DHT22;61017;37.812;-122.286;2022-11-12T05:50:58;18.20;76.10
72883;DHT22;61017;37.812;-122.286;2022-11-12T05:52:52;18.20;76.00
72883;DHT22;61017;37.812;-122.286;2022-11-12T05:54:42;18.20;76.10
72883;DHT22;61017;37.812;-122.286;2022-11-12T05:56:36;18.20;76.10
72883;DHT22;61017;37.812;-122.286;2022-11-12T05:58:27;18.20;76.20
72883;DHT22;61017;37.812;-122.286;2022-11-12T06:00:18;18.10;76.10
72883;DHT22;61017;37.812;-122.286;2022-11-12T06:02:08;18.10;76.10
72883;DHT22;61017;37.812;-122.286;2022-11-12T06:04:03;18.10;76.30
72883;DHT22;61017;37.812;-122.286;2022-11-12T06:05:54;18.10;76.60
72883;DHT22;61017;37.812;-122.286;2022-11-12T06:07:47;18.10;76.80
72883;DHT22;61017;37.812;-122.286;2022-11-12T06:09:37;18.10;76.70
72883;DHT22;61017;37.812;-122.286;2022-11-12T06:11:31;18.10;76.40
72883;DHT22;61017;37.812;-122.286;2022-11-12T06:13:23;18.10;76.60
72883;DHT22;61017;37.812;-122.286;2022-11-12T06:15:13;18.00;76.20
72883;DHT22;61017;37.812;-122.286;2022-11-12T06:17:03;18.00;76.10
72883;DHT22;61017;37.812;-122.286;2022-11-12T06:18:59;18.00;76.30
72883;DHT22;61017;37.812;-122.286;2022-11-12T06:20:49;18.00;76.60
72883;DHT22;61017;37.812;-122.286;2022-11-12T06:22:43;18.00;76.70
72883;DHT22;61017;37.812;-122.286;2022-11-12T06:24:36;18.10;76.90
72883;DHT22;61017;37.812;-122.286;2022-11-12T06:26:28;18.10;77.00
72883;DHT22;61017;37.812;-122.286;2022-11-12T06:28:22;18.00;77.10
72883;DHT22;61017;37.812;-122.286;2022-11-12T06:30:12;18.00;77.20
72883;DHT22;61017;37.812;-122.286;2022-11-12T06:32:02;18.00;77.50
72883;DHT22;61017;37.812;-122.286;2022-11-12T06:33:57;18.00;77.40
72883;DHT22;61017;37.812;-122.286;2022-11-12T06:35:54;18.00;77.30
72883;DHT22;61017;37.812;-122.286;2022-11-12T06:37:48;18.00;77.60
72883;DHT22;61017;37.812;-122.286;2022-11-12T06:39:38;18.00;77.70
72883;DHT22;61017;37.812;-122.286;2022-11-12T06:41:50;18.00;77.50
72883;DHT22;61017;37.812;-122.286;2022-11-12T06:43:41;17.90;77.20
72883;DHT22;61017;37.812;-122.286;2022-11-12T06:45:31;18.00;77.70
72883;DHT22;61017;37.812;-122.286;2022-11-12T06:47:21;17.90;77.50
72883;DHT22;61017;37.812;-122.286;2022-11-12T06:49:16;17.90;77.60
72883;DHT22;61017;37.812;-122.286;2022-11-12T06:51:08;17.90;77.70
72883;DHT22;61017;37.812;-122.286;2022-11-12T06:52:58;17.90;77.80
72883;DHT22;61017;37.812;-122.286;2022-11-12T06:54:49;17.90;77.90
72883;DHT22;61017;37.812;-122.286;2022-11-12T06:56:40;17.90;77.70
72883;DHT22;61017;37.812;-122.286;2022-11-12T06:58:30;17.90;77.50
72883;DHT22;61017;37.812;-122.286;2022-11-12T07:00:32;17.90;77.10
72883;DHT22;61017;37.812;-122.286;2022-11-12T07:02:25;17.90;77.10
72883;DHT22;61017;37.812;-122.286;2022-11-12T07:04:16;17.90;77.10
72883;DHT22;61017;37.812;-122.286;2022-11-12T07:06:11;17.90;77.50
72883;DHT22;61017;37.812;-122.286;2022-11-12T07:08:02;17.90;77.90
72883;DHT22;61017;37.812;-122.286;2022-11-12T07:09:52;17.90;77.60
72883;DHT22;61017;37.812;-122.286;2022-11-12T07:11:42;17.90;77.40
72883;DHT22;61017;37.812;-122.286;2022-11-12T07:13:33;17.90;77.20
72883;DHT22;61017;37.812;-122.286;2022-11-12T07:15:24;17.80;77.10
72883;DHT22;61017;37.812;-122.286;2022-11-12T07:17:17;17.80;77.10
72883;DHT22;61017;37.812;-122.286;2022-11-12T07:19:13;17.80;77.10
72883;DHT22;61017;37.812;-122.286;2022-11-12T07:21:18;17.80;77.10
72883;DHT22;61017;37.812;-122.286;2022-11-12T07:23:08;17.80;76.90
72883;DHT22;61017;37.812;-122.286;2022-11-12T07:24:58;17.80;77.30
72883;DHT22;61017;37.812;-122.286;2022-11-12T07:26:48;17.70;76.80
72883;DHT22;61017;37.812;-122.286;2022-11-12T07:28:37;17.70;76.90
72883;DHT22;61017;37.812;-122.286;2022-11-12T07:30:28;17.70;76.80
72883;DHT22;61017;37.812;-122.286;2022-11-12T07:32:18;17.70;76.80
72883;DHT22;61017;37.812;-122.286;2022-11-12T07:34:10;17.70;76.80
72883;DHT22;61017;37.812;-122.286;2022-11-12T07:36:12;17.70;76.80
72883;DHT22;61017;37.812;-122.286;2022-11-12T07:38:02;17.70;76.80
72883;DHT22;61017;37.812;-122.286;2022-11-12T07:39:52;17.70;76.70
72883;DHT22;61017;37.812;-122.286;2022-11-12T07:41:43;17.70;76.70
72883;DHT22;61017;37.812;-122.286;2022-11-12T07:43:37;17.60;76.60
72883;DHT22;61017;37.812;-122.286;2022-11-12T07:45:28;17.60;76.60
72883;DHT22;61017;37.812;-122.286;2022-11-12T07:47:18;17.60;76.70
72883;DHT22;61017;37.812;-122.286;2022-11-12T07:49:11;17.60;76.70
72883;DHT22;61017;37.812;-122.286;2022-11-12T07:51:06;17.60;76.70
72883;DHT22;61017;37.812;-122.286;2022-11-12T07:53:03;17.60;76.60
72883;DHT22;61017;37.812;-122.286;2022-11-12T07:54:58;17.60;76.60
72883;DHT22;61017;37.812;-122.286;2022-11-12T07:56:48;17.60;77.50
72883;DHT22;61017;37.812;-122.286;2022-11-12T07:58:39;17.60;76.70
72883;DHT22;61017;37.812;-122.286;2022-11-12T08:00:29;17.60;76.60
72883;DHT22;61017;37.812;-122.286;2022-11-12T08:02:25;17.50;76.50
72883;DHT22;61017;37.812;-122.286;2022-11-12T08:04:25;17.50;76.50
72883;DHT22;61017;37.812;-122.286;2022-11-12T08:06:15;17.50;76.50
72883;DHT22;61017;37.812;-122.286;2022-11-12T08:08:11;17.50;76.60
72883;DHT22;61017;37.812;-122.286;2022-11-12T08:10:01;17.50;76.60
72883;DHT22;61017;37.812;-122.286;2022-11-12T08:11:54;17.50;76.60
72883;DHT22;61017;37.812;-122.286;2022-11-12T08:13:46;17.50;76.60
72883;DHT22;61017;37.812;-122.286;2022-11-12T08:15:36;17.50;76.60
72883;DHT22;61017;37.812;-122.286;2022-11-12T08:17:29;17.50;76.60
72883;DHT22;61017;37.812;-122.286;2022-11-12T08:19:19;17.40;76.50
72883;DHT22;61017;37.812;-122.286;2022-11-12T08:21:12;17.40;76.50
72883;DHT22;61017;37.812;-122.286;2022-11-12T08:23:07;17.40;76.50
72883;DHT22;61017;37.812;-122.286;2022-11-12T08:25:03;17.40;76.60
72883;DHT22;61017;37.812;-122.286;2022-11-12T08:26:53;17.40;76.50
72883;DHT22;61017;37.812;-122.286;2022-11-12T08:28:44;17.40;76.60
72883;DHT22;61017;37.812;-122.286;2022-11-12T08:30:37;17.40;76.50
72883;DHT22;61017;37.812;-122.286;2022-11-12T08:32:27;17.40;76.60
72883;DHT22;61017;37.812;-122.286;2022-11-12T08:34:25;17.40;76.40
72883;DHT22;61017;37.812;-122.286;2022-11-12T08:36:16;17.40;76.40
72883;DHT22;61017;37.812;-122.286;2022-11-12T08:38:10;17.30;76.30
72883;DHT22;61017;37.812;-122.286;2022-11-12T08:40:03;17.30;76.30
72883;DHT22;61017;37.812;-122.286;2022-11-12T08:42:03;17.30;76.10
72883;DHT22;61017;37.812;-122.286;2022-11-12T08:43:55;17.30;76.40
72883;DHT22;61017;37.812;-122.286;2022-11-12T08:45:48;17.30;76.60
72883;DHT22;61017;37.812;-122.286;2022-11-12T08:47:38;17.30;76.70
72883;DHT22;61017;37.812;-122.286;2022-11-12T08:49:28;17.30;76.90
72883;DHT22;61017;37.812;-122.286;2022-11-12T08:51:18;17.30;76.90
72883;DHT22;61017;37.812;-122.286;2022-11-12T08:53:12;17.30;76.70
72883;DHT22;61017;37.812;-122.286;2022-11-12T08:55:03;17.30;76.80
72883;DHT22;61017;37.812;-122.286;2022-11-12T08:57:14;17.30;76.80
72883;DHT22;61017;37.812;-122.286;2022-11-12T08:59:04;17.30;77.00
72883;DHT22;61017;37.812;-122.286;2022-11-12T09:00:55;17.30;77.10
72883;DHT22;61017;37.812;-122.286;2022-11-12T09:02:45;17.30;77.10
72883;DHT22;61017;37.812;-122.286;2022-11-12T09:04:39;17.30;77.20
72883;DHT22;61017;37.812;-122.286;2022-11-12T09:06:33;17.20;77.20
72883;DHT22;61017;37.812;-122.286;2022-11-12T09:08:24;17.20;77.30
72883;DHT22;61017;37.812;-122.286;2022-11-12T09:10:18;17.20;77.60
72883;DHT22;61017;37.812;-122.286;2022-11-12T09:12:08;17.20;77.70
72883;DHT22;61017;37.812;-122.286;2022-11-12T09:13:58;17.20;77.70
72883;DHT22;61017;37.812;-122.286;2022-11-12T09:15:48;17.20;77.70
72883;DHT22;61017;37.812;-122.286;2022-11-12T09:17:39;17.20;77.60
72883;DHT22;61017;37.812;-122.286;2022-11-12T09:19:30;17.20;77.80
72883;DHT22;61017;37.812;-122.286;2022-11-12T09:21:23;17.20;77.70
72883;DHT22;61017;37.812;-122.286;2022-11-12T09:23:14;17.20;77.70
72883;DHT22;61017;37.812;-122.286;2022-11-12T09:25:14;17.20;78.00
72883;DHT22;61017;37.812;-122.286;2022-11-12T09:27:04;17.20;77.70
72883;DHT22;61017;37.812;-122.286;2022-11-12T09:28:56;17.20;77.70
72883;DHT22;61017;37.812;-122.286;2022-11-12T09:31:00;17.20;77.80
72883;DHT22;61017;37.812;-122.286;2022-11-12T09:32:55;17.20;78.00
72883;DHT22;61017;37.812;-122.286;2022-11-12T09:34:45;17.20;77.90
72883;DHT22;61017;37.812;-122.286;2022-11-12T09:36:35;17.20;77.80
72883;DHT22;61017;37.812;-122.286;2022-11-12T09:38:29;17.20;77.70
72883;DHT22;61017;37.812;-122.286;2022-11-12T09:40:19;17.20;77.50
72883;DHT22;61017;37.812;-122.286;2022-11-12T09:42:23;17.20;77.40
72883;DHT22;61017;37.812;-122.286;2022-11-12T09:44:25;17.20;77.20
72883;DHT22;61017;37.812;-122.286;2022-11-12T09:46:29;17.10;77.30
72883;DHT22;61017;37.812;-122.286;2022-11-12T09:48:32;17.10;77.20
72883;DHT22;61017;37.812;-122.286;2022-11-12T09:50:25;17.10;77.10
72883;DHT22;61017;37.812;-122.286;2022-11-12T09:52:22;17.10;77.40
72883;DHT22;61017;37.812;-122.286;2022-11-12T09:54:24;17.10;77.60
72883;DHT22;61017;37.812;-122.286;2022-11-12T09:56:20;17.10;77.70
72883;DHT22;61017;37.812;-122.286;2022-11-12T09:58:15;17.10;77.40
72883;DHT22;61017;37.812;-122.286;2022-11-12T10:00:19;17.10;77.30
72883;DHT22;61017;37.812;-122.286;2022-11-12T10:02:34;17.10;77.40
72883;DHT22;61017;37.812;-122.286;2022-11-12T10:04:34;17.10;77.40
72883;DHT22;61017;37.812;-122.286;2022-11-12T10:06:42;17.10;77.30
72883;DHT22;61017;37.812;-122.286;2022-11-12T10:09:08;17.10;77.60
72883;DHT22;61017;37.812;-122.286;2022-11-12T10:11:01;17.10;77.70
72883;DHT22;61017;37.812;-122.286;2022-11-12T10:15:19;17.00;77.50
72883;DHT22;61017;37.812;-122.286;2022-11-12T10:17:36;17.00;77.60
72883;DHT22;61017;37.812;-122.286;2022-11-12T10:20:28;17.00;77.60
72883;DHT22;61017;37.812;-122.286;2022-11-12T10:24:12;17.00;77.50
72883;DHT22;61017;37.812;-122.286;2022-11-12T10:26:13;17.00;77.60
72883;DHT22;61017;37.812;-122.286;2022-11-12T10:30:17;17.00;77.50
72883;DHT22;61017;37.812;-122.286;2022-11-12T10:32:13;17.00;77.70
72883;DHT22;61017;37.812;-122.286;2022-11-12T10:34:14;17.00;78.10
72883;DHT22;61017;37.812;-122.286;2022-11-12T10:36:29;17.00;77.90
72883;DHT22;61017;37.812;-122.286;2022-11-12T10:38:21;17.00;78.00
72883;DHT22;61017;37.812;-122.286;2022-11-12T10:42:13;17.00;78.30
72883;DHT22;61017;37.812;-122.286;2022-11-12T10:44:12;17.00;78.60
72883;DHT22;61017;37.812;-122.286;2022-11-12T10:46:24;17.00;78.40
72883;DHT22;61017;37.812;-122.286;2022-11-12T10:48:24;17.00;78.40
72883;DHT22;61017;37.812;-122.286;2022-11-12T10:50:20;17.00;78.70
72883;DHT22;61017;37.812;-122.286;2022-11-12T10:52:21;17.00;79.00
72883;DHT22;61017;37.812;-122.286;2022-11-12T10:54:37;17.00;78.80
72883;DHT22;61017;37.812;-122.286;2022-11-12T10:56:31;17.00;78.80
72883;DHT22;61017;37.812;-122.286;2022-11-12T10:58:22;17.00;78.80
72883;DHT22;61017;37.812;-122.286;2022-11-12T11:02:12;17.00;78.70
72883;DHT22;61017;37.812;-122.286;2022-11-12T11:04:04;17.00;78.80
72883;DHT22;61017;37.812;-122.286;2022-11-12T11:06:16;17.00;78.70
72883;DHT22;61017;37.812;-122.286;2022-11-12T11:08:09;17.00;78.80
72883;DHT22;61017;37.812;-122.286;2022-11-12T11:10:00;17.00;78.70
72883;DHT22;61017;37.812;-122.286;2022-11-12T11:11:51;17.00;78.60
72883;DHT22;61017;37.812;-122.286;2022-11-12T11:13:45;17.00;78.60
72883;DHT22;61017;37.812;-122.286;2022-11-12T11:15:37;17.00;78.60
72883;DHT22;61017;37.812;-122.286;2022-11-12T11:17:27;17.00;78.60
72883;DHT22;61017;37.812;-122.286;2022-11-12T11:19:17;17.00;78.60
72883;DHT22;61017;37.812;-122.286;2022-11-12T11:23:20;17.00;78.50
72883;DHT22;61017;37.812;-122.286;2022-11-12T11:25:17;17.00;78.00
72883;DHT22;61017;37.812;-122.286;2022-11-12T11:27:26;17.00;78.00
72883;DHT22;61017;37.812;-122.286;2022-11-12T11:33:56;16.90;77.60
72883;DHT22;61017;37.812;-122.286;2022-11-12T11:38:24;16.90;77.60
72883;DHT22;61017;37.812;-122.286;2022-11-12T11:40:30;16.90;77.50
72883;DHT22;61017;37.812;-122.286;2022-11-12T11:42:40;16.90;77.70
72883;DHT22;61017;37.812;-122.286;2022-11-12T11:44:44;16.90;77.70